»·PEaware :: N8727N KAJO-KVCV

N8727N :: KAJO-KVCV

FLIGHT INFORMATION

Flight Status: Arrived
Operator: Privately registered:
United States
More flights under this callsign
Pilot: Jonas V. (19294)
Aircraft: PILATUS PC-12 EAGLE
(PC12)
More flights by this aircraft type
Origin: KAJO Corona Mun
United States
Destination: KVCV Socal Logistics
United States
More flights between these airports :: More routes between these airports
Route: PDZ V442 APLES
File this flight plan on PilotEdge
Remarks: KAJO ODP, I11 RATING
Altitude:
(Current/Filed)
9,000ft
Speed:
(Current/Filed)
250kts
Departed: 31-Dec-18 11:10 AM
Arrived: 31-Dec-18 11:50 AM
Distance/Time
Traveled:
43nm/0:40
Distance/Time
To Go:
Arrived

Flight Plot

Page will automatically refresh every two minutes.


Map Options




Map Legend


Flown Route
Filed Route
Departure Airport
Arrival Airport
Navaid (VOR, NDB)
Fix

Horizontal Profiles

Position Reports

Time Latitude Longitude Heading Altitude Ground
Speed
31-Dec-18 10:50 33.896007 -117.603813 87 537ft 0kts
31-Dec-18 10:51 33.896007 -117.603813 87 537ft 0kts
31-Dec-18 10:52 33.896007 -117.603813 87 537ft 0kts
31-Dec-18 10:53 33.896007 -117.603813 87 537ft 0kts
31-Dec-18 10:54 33.896007 -117.603813 87 537ft 0kts
31-Dec-18 10:55 33.896007 -117.603813 86 537ft 0kts
31-Dec-18 10:56 33.896007 -117.603813 86 537ft 0kts
31-Dec-18 10:57 33.896007 -117.603813 86 537ft 0kts
31-Dec-18 10:58 33.896007 -117.603813 86 537ft 0kts
31-Dec-18 10:59 33.896007 -117.603813 86 537ft 0kts
31-Dec-18 11:00 33.896007 -117.603813 86 537ft 0kts
31-Dec-18 11:01 33.896007 -117.603813 86 537ft 0kts
31-Dec-18 11:02 33.896007 -117.603813 86 537ft 0kts
31-Dec-18 11:03 33.896007 -117.603813 86 537ft 0kts
31-Dec-18 11:04 33.896007 -117.603813 86 537ft 0kts
31-Dec-18 11:05 33.896127 -117.603636 4 537ft 7kts
31-Dec-18 11:06 33.897279 -117.600796 88 537ft 21kts
31-Dec-18 11:07 33.897296 -117.597399 7 537ft 0kts
31-Dec-18 11:08 33.897743 -117.597681 265 537ft 13kts
31-Dec-18 11:09 33.901583 -117.634197 318 1837ft 151kts
31-Dec-18 11:10 33.920775 -117.607053 84 4484ft 151kts
31-Dec-18 11:11 33.919060 -117.543777 89 4993ft 229kts
31-Dec-18 11:12 33.943353 -117.480709 41 5039ft 218kts
31-Dec-18 11:13 33.986684 -117.431812 20 5043ft 212kts
31-Dec-18 11:14 33.990701 -117.461356 183 5056ft 231kts
31-Dec-18 11:15 33.939783 -117.502893 226 5038ft 230kts
31-Dec-18 11:16 33.904116 -117.560661 283 5889ft 208kts
31-Dec-18 11:17 33.945124 -117.559368 46 7318ft 208kts
31-Dec-18 11:18 33.971919 -117.500112 46 8967ft 205kts
31-Dec-18 11:19 34.024646 -117.465514 22 9035ft 236kts
31-Dec-18 11:20 34.082594 -117.429835 22 9031ft 243kts
31-Dec-18 11:21 34.142110 -117.393164 21 9036ft 247kts
31-Dec-18 11:22 34.202672 -117.355813 21 9039ft 249kts
31-Dec-18 11:23 34.261813 -117.318581 22 9037ft 250kts
31-Dec-18 11:24 34.320476 -117.281971 21 9039ft 249kts
31-Dec-18 11:25 34.381006 -117.244355 21 9040ft 248kts
31-Dec-18 11:26 34.442348 -117.207942 19 8985ft 247kts
31-Dec-18 11:27 34.504245 -117.173922 18 8986ft 245kts
31-Dec-18 11:28 34.566934 -117.145191 2 8995ft 237kts
31-Dec-18 11:29 34.631260 -117.147082 347 8219ft 222kts
31-Dec-18 11:30 34.688466 -117.171104 333 7354ft 218kts
31-Dec-18 11:31 34.737174 -117.214341 318 6592ft 213kts
31-Dec-18 11:32 34.772362 -117.270970 303 6594ft 212kts
31-Dec-18 11:33 34.792652 -117.336340 288 5761ft 204kts
31-Dec-18 11:34 34.769007 -117.382454 163 5201ft 224kts
31-Dec-18 11:35 34.707710 -117.380030 184 4455ft 223kts
31-Dec-18 11:36 34.648419 -117.385145 183 3625ft 162kts
31-Dec-18 11:37 34.605547 -117.388598 184 3648ft 176kts
31-Dec-18 11:38 34.598968 -117.429405 286 5682ft 166kts
31-Dec-18 11:39 34.612669 -117.492978 291 6051ft 225kts
31-Dec-18 11:40 34.625846 -117.570941 286 5964ft 240kts
31-Dec-18 11:41 34.647546 -117.643998 327 6002ft 228kts
31-Dec-18 11:42 34.676788 -117.602051 114 6256ft 246kts
31-Dec-18 11:43 34.627340 -117.553951 106 5825ft 223kts
31-Dec-18 11:44 34.614958 -117.482960 93 5049ft 210kts
31-Dec-18 11:45 34.603848 -117.416969 112 4133ft 201kts
31-Dec-18 11:46 34.555605 -117.404640 149 3662ft 143kts
31-Dec-18 11:47 34.567849 -117.386287 3 3196ft 98kts
31-Dec-18 11:48 34.589418 -117.386405 357 2888ft 49kts
31-Dec-18 11:49 34.594973 -117.384507 86 2888ft 0kts
31-Dec-18 11:50 34.594982 -117.384284 105 2888ft 7kts
31-Dec-18 11:51 34.589585 -117.376945 57 2888ft 17kts
31-Dec-18 11:52 34.591439 -117.367658 114 2888ft 26kts

Navigation Log

Ident Type
Flight plan parsing failed, navigation log unavailable